Time;durP1;ratioP1;P1;durP2;ratioP2;P2;SDS_P1;SDS_P2;PMS_P1;PMS_P2;Temp;Humidity;BMP_temperature;BMP_pressure;BME280_temperature;BME280_humidity;BME280_pressure;Samples;Min_cycle;Max_cycle;Signal;HPM_P1;HPM_P2
2022/11/07 00:01:17;;;;;;;73.20;51.67;;;18.00;71.50;;;;;;4951713;28;90242;-55
2022/11/07 00:03:42;;;;;;;72.78;51.55;;;18.00;71.50;;;;;;4953253;28;94933;-49
2022/11/07 00:06:10;;;;;;;71.57;51.40;;;18.00;71.50;;;;;;4963747;28;90140;-51
2022/11/07 00:08:35;;;;;;;72.43;51.72;;;18.00;71.50;;;;;;4947267;28;90029;-52
2022/11/07 00:11:02;;;;;;;70.88;50.95;;;18.00;71.50;;;;;;4949625;28;89248;-54
2022/11/07 00:13:29;;;;;;;72.78;50.95;;;18.00;71.50;;;;;;4952276;28;90341;-48
2022/11/07 00:15:59;;;;;;;73.35;51.45;;;18.00;71.30;;;;;;4951709;28;91317;-50
2022/11/07 00:18:24;;;;;;;71.68;51.72;;;18.00;71.50;;;;;;4947699;28;92804;-49
2022/11/07 00:20:50;;;;;;;72.05;51.50;;;17.90;71.50;;;;;;4947835;28;90307;-48
2022/11/07 00:23:16;;;;;;;71.57;51.35;;;17.90;71.50;;;;;;4947722;28;90339;-52
2022/11/07 00:25:41;;;;;;;71.53;51.55;;;17.90;71.50;;;;;;4950601;28;89963;-51
2022/11/07 00:28:07;;;;;;;71.28;51.00;;;17.90;71.40;;;;;;4945365;28;91603;-48
2022/11/07 00:30:33;;;;;;;71.90;51.58;;;17.90;71.50;;;;;;4945770;28;90294;-49
2022/11/07 00:32:58;;;;;;;74.75;51.55;;;17.90;71.30;;;;;;4943852;28;90389;-50
2022/11/07 00:35:24;;;;;;;72.78;51.47;;;17.90;71.40;;;;;;4945293;28;91496;-53
2022/11/07 00:37:50;;;;;;;73.95;51.38;;;17.90;71.50;;;;;;4946998;28;93055;-51
2022/11/07 00:40:15;;;;;;;73.55;51.15;;;17.90;71.40;;;;;;4945216;28;90358;-49
2022/11/07 00:42:41;;;;;;;72.00;51.28;;;17.90;71.30;;;;;;4948940;28;91076;-49
2022/11/07 00:45:07;;;;;;;71.07;51.13;;;17.90;71.30;;;;;;4951693;28;95007;-50
2022/11/07 00:47:33;;;;;;;72.55;51.40;;;17.90;71.40;;;;;;4947279;28;89754;-49
2022/11/07 00:49:58;;;;;;;71.65;51.17;;;17.90;71.30;;;;;;4943120;28;89751;-50
2022/11/07 00:52:24;;;;;;;71.20;51.13;;;17.90;71.20;;;;;;4947734;28;90727;-49
2022/11/07 00:54:49;;;;;;;72.70;50.83;;;17.90;71.30;;;;;;4942735;28;91529;-52
2022/11/07 00:57:15;;;;;;;71.68;51.20;;;17.90;71.20;;;;;;4954018;28;89679;-49
2022/11/07 00:59:41;;;;;;;71.53;50.63;;;17.90;71.30;;;;;;4957508;28;89567;-53
2022/11/07 01:02:06;;;;;;;72.03;51.40;;;17.80;71.30;;;;;;4952483;28;91293;-48
2022/11/07 01:07:16;;;;;;;71.90;50.95;;;17.80;71.30;;;;;;4936228;28;91083;-48
2022/11/07 01:09:42;;;;;;;71.00;51.03;;;17.80;71.30;;;;;;4948334;28;96208;-49
2022/11/07 01:12:07;;;;;;;73.03;51.33;;;17.80;71.30;;;;;;4949600;28;91063;-48
2022/11/07 01:14:34;;;;;;;71.40;51.17;;;17.80;71.20;;;;;;4944230;28;91485;-50
2022/11/07 01:17:00;;;;;;;72.20;50.80;;;17.80;71.30;;;;;;4950583;28;90169;-50
2022/11/07 01:19:25;;;;;;;73.15;50.88;;;17.80;71.30;;;;;;4942695;28;90437;-48
2022/11/07 01:21:51;;;;;;;72.75;50.97;;;17.80;72.10;;;;;;4949341;28;95083;-50
2022/11/07 01:24:17;;;;;;;71.10;50.90;;;17.80;71.30;;;;;;4946898;28;89906;-50
2022/11/07 01:26:46;;;;;;;71.40;51.38;;;17.80;71.20;;;;;;4951051;28;90596;-49
2022/11/07 01:29:13;;;;;;;71.50;51.03;;;17.80;71.20;;;;;;4955935;28;90188;-50
2022/11/07 01:31:39;;;;;;;72.43;51.15;;;17.80;71.30;;;;;;4944475;28;91719;-49
2022/11/07 01:34:05;;;;;;;73.47;51.25;;;17.80;71.20;;;;;;4947587;28;94332;-52
2022/11/07 01:36:31;;;;;;;71.85;50.83;;;17.80;71.30;;;;;;4951592;28;89815;-48
2022/11/07 01:38:57;;;;;;;72.80;51.08;;;17.80;71.30;;;;;;4949571;28;89681;-50
2022/11/07 01:41:29;;;;;;;72.07;51.03;;;17.80;71.20;;;;;;4952166;28;91848;-52
2022/11/07 01:44:03;;;;;;;;;;;17.80;71.30;;;;;;4962392;28;90047;-50
2022/11/07 01:46:39;;;;;;;71.43;50.92;;;17.70;71.10;;;;;;4952497;28;90061;-50
2022/11/07 01:49:20;;;;;;;72.07;51.67;;;17.70;71.20;;;;;;4947523;28;90500;-53
2022/11/07 01:51:48;;;;;;;73.13;51.22;;;17.70;71.20;;;;;;4944036;28;93504;-51
2022/11/07 01:54:19;;;;;;;71.28;50.95;;;17.70;71.10;;;;;;4951403;28;90444;-48
2022/11/07 01:56:45;;;;;;;72.90;50.83;;;17.70;71.20;;;;;;4948193;28;91288;-50
2022/11/07 01:59:15;;;;;;;71.75;50.75;;;17.70;71.00;;;;;;4960747;28;91823;-50
2022/11/07 02:01:42;;;;;;;73.93;51.23;;;17.70;70.90;;;;;;4945598;28;92528;-48
2022/11/07 02:04:08;;;;;;;73.68;51.13;;;17.70;71.00;;;;;;4949896;28;90150;-50
2022/11/07 02:06:58;;;;;;;71.57;51.03;;;17.70;71.00;;;;;;4950087;28;90091;-48
2022/11/07 02:09:24;;;;;;;72.05;51.25;;;17.70;70.90;;;;;;4952022;28;90139;-49
2022/11/07 02:11:51;;;;;;;71.38;51.22;;;17.70;70.90;;;;;;4948812;28;91671;-53
2022/11/07 02:14:18;;;;;;;71.68;51.38;;;17.70;70.80;;;;;;4953373;28;90021;-49
2022/11/07 02:16:44;;;;;;;72.80;51.13;;;17.70;70.80;;;;;;4945672;28;90805;-48
2022/11/07 02:19:37;;;;;;;73.13;51.15;;;17.70;70.90;;;;;;4960818;28;89930;-49
2022/11/07 02:22:23;;;;;;;72.03;51.72;;;17.70;70.90;;;;;;4947430;28;91735;-51
2022/11/07 02:24:54;;;;;;;72.60;51.00;;;17.70;70.80;;;;;;4949511;28;91340;-48
2022/11/07 02:27:23;;;;;;;72.15;50.88;;;17.70;70.70;;;;;;4951865;28;90041;-51
2022/11/07 02:29:55;;;;;;;73.13;51.40;;;17.70;70.70;;;;;;4950751;28;91647;-50
2022/11/07 02:32:21;;;;;;;71.35;50.70;;;17.70;70.60;;;;;;4954308;28;90778;-47
2022/11/07 02:35:01;;;;;;;71.93;51.10;;;17.70;70.70;;;;;;4940245;28;91111;-52
2022/11/07 02:37:33;;;;;;;72.03;50.83;;;17.70;70.70;;;;;;4960486;28;89786;-53
2022/11/07 02:40:03;;;;;;;72.63;50.88;;;17.70;70.70;;;;;;4946143;28;90098;-50
2022/11/07 02:42:42;;;;;;;71.72;51.28;;;17.70;70.70;;;;;;4942361;28;90409;-49
2022/11/07 02:45:14;;;;;;;74.07;51.35;;;17.60;70.60;;;;;;4941059;28;93552;-51
2022/11/07 02:47:40;;;;;;;71.50;50.90;;;17.70;70.80;;;;;;4954022;28;91882;-50
2022/11/07 02:50:08;;;;;;;72.95;51.05;;;17.70;70.70;;;;;;4948684;28;90231;-48
2022/11/07 02:52:33;;;;;;;72.85;51.15;;;17.60;70.60;;;;;;4943737;28;91133;-49
2022/11/07 02:54:59;;;;;;;71.18;50.97;;;17.70;70.70;;;;;;4953144;28;92178;-52
2022/11/07 02:57:25;;;;;;;73.75;51.25;;;17.60;70.70;;;;;;4948406;28;91072;-53
2022/11/07 02:59:51;;;;;;;72.70;50.88;;;17.60;70.80;;;;;;4954939;28;90127;-50
2022/11/07 03:02:17;;;;;;;72.63;51.13;;;17.60;70.80;;;;;;4945025;28;90028;-49
2022/11/07 03:04:42;;;;;;;72.18;51.05;;;17.60;70.70;;;;;;4948078;28;89047;-52
2022/11/07 03:07:08;;;;;;;72.10;51.05;;;17.60;70.60;;;;;;4947719;28;89742;-53
2022/11/07 03:09:34;;;;;;;72.57;51.05;;;17.60;70.60;;;;;;4947700;28;90217;-52
2022/11/07 03:11:59;;;;;;;74.68;51.47;;;17.60;70.60;;;;;;4941710;28;93666;-48
2022/11/07 03:14:25;;;;;;;72.22;51.17;;;17.60;70.50;;;;;;4946450;28;91164;-52
2022/11/07 03:16:50;;;;;;;73.55;51.22;;;17.60;70.50;;;;;;4941274;28;90583;-52
2022/11/07 03:19:16;;;;;;;71.00;51.05;;;17.60;70.50;;;;;;4954227;28;90986;-51
2022/11/07 03:21:42;;;;;;;72.15;51.03;;;17.60;70.60;;;;;;4942448;28;92760;-52
2022/11/07 03:24:07;;;;;;;72.38;50.78;;;17.60;70.50;;;;;;4949366;28;92898;-52
2022/11/07 03:26:33;;;;;;;72.68;51.55;;;17.60;70.60;;;;;;4940605;28;89887;-51
2022/11/07 03:28:58;;;;;;;73.20;51.55;;;17.60;70.50;;;;;;4945920;28;89258;-53
2022/11/07 03:31:24;;;;;;;73.45;51.45;;;17.60;70.60;;;;;;4945582;28;90847;-52
2022/11/07 03:33:50;;;;;;;72.00;51.30;;;17.60;70.50;;;;;;4949069;28;90465;-49
2022/11/07 03:36:16;;;;;;;70.88;50.95;;;17.60;70.50;;;;;;4943154;28;90934;-53
2022/11/07 03:38:41;;;;;;;72.40;50.97;;;17.60;70.50;;;;;;4944958;28;93637;-50
2022/11/07 03:41:07;;;;;;;73.20;51.33;;;17.60;70.60;;;;;;4948015;28;92322;-49
2022/11/07 03:43:33;;;;;;;72.90;51.05;;;17.60;70.70;;;;;;4941604;28;93099;-52
2022/11/07 03:45:58;;;;;;;75.95;51.30;;;17.60;70.80;;;;;;4948091;28;94966;-51
2022/11/07 03:48:24;;;;;;;76.25;51.38;;;17.60;70.80;;;;;;4947289;28;89863;-48
2022/11/07 03:50:50;;;;;;;73.57;51.00;;;17.50;70.60;;;;;;4951649;28;91948;-49
2022/11/07 03:53:15;;;;;;;72.28;51.13;;;17.60;70.80;;;;;;4939952;28;93408;-48
2022/11/07 03:55:41;;;;;;;70.97;50.92;;;17.60;70.70;;;;;;4946778;28;95325;-49
2022/11/07 03:58:07;;;;;;;72.45;51.20;;;17.50;70.70;;;;;;4944281;28;93485;-48
2022/11/07 04:00:33;;;;;;;72.22;50.97;;;17.60;70.70;;;;;;4941701;28;91655;-49
2022/11/07 04:02:58;;;;;;;73.85;51.22;;;17.50;70.70;;;;;;4941144;28;90114;-52
2022/11/07 04:05:24;;;;;;;72.60;51.20;;;17.50;70.70;;;;;;4948036;28;91718;-49
2022/11/07 04:07:50;;;;;;;72.50;51.03;;;17.60;70.80;;;;;;4945800;28;92237;-49
2022/11/07 04:10:16;;;;;;;72.63;51.42;;;17.50;70.70;;;;;;4955467;28;90475;-51
2022/11/07 04:18:11;;;;;;;73.80;51.10;;;17.50;70.70;;;;;;4942022;28;91439;-50
2022/11/07 04:20:37;;;;;;;73.32;50.85;;;17.50;70.70;;;;;;4953932;28;90274;-51
2022/11/07 04:23:02;;;;;;;73.00;51.22;;;17.50;70.70;;;;;;4941289;28;90092;-52
2022/11/07 04:28:15;;;;;;;73.10;51.05;;;17.50;70.70;;;;;;4949218;28;89937;-49
2022/11/07 04:30:40;;;;;;;71.28;50.72;;;17.50;70.50;;;;;;4953356;28;90034;-48
2022/11/07 04:33:06;;;;;;;73.40;51.25;;;17.50;70.60;;;;;;4944322;28;90696;-47
2022/11/07 04:35:32;;;;;;;73.97;51.03;;;17.50;70.60;;;;;;4948920;28;93985;-51
2022/11/07 04:37:59;;;;;;;71.60;51.72;;;17.50;70.80;;;;;;4948679;28;90069;-49
2022/11/07 04:40:25;;;;;;;71.45;50.90;;;17.50;70.90;;;;;;4952874;28;92551;-49
2022/11/07 04:42:51;;;;;;;73.85;51.13;;;17.50;70.70;;;;;;4957816;28;89307;-49
2022/11/07 04:45:17;;;;;;;73.30;51.00;;;17.50;70.70;;;;;;4952364;28;92007;-50
2022/11/07 04:47:43;;;;;;;72.30;51.33;;;17.50;70.70;;;;;;4944588;28;89879;-49
2022/11/07 04:50:11;;;;;;;72.03;50.83;;;17.50;70.70;;;;;;4948033;28;91572;-52
2022/11/07 04:52:37;;;;;;;72.25;51.17;;;17.50;70.70;;;;;;4942005;28;91119;-51
2022/11/07 04:55:04;;;;;;;73.70;51.13;;;17.50;70.60;;;;;;4948157;28;90055;-52
2022/11/07 04:57:30;;;;;;;71.50;51.22;;;17.50;70.60;;;;;;4949335;28;89954;-50
2022/11/07 04:59:55;;;;;;;74.85;51.10;;;17.50;70.70;;;;;;4950536;28;89797;-51
2022/11/07 05:02:24;;;;;;;71.47;50.95;;;17.50;70.60;;;;;;4935270;28;89954;-49
2022/11/07 05:04:51;;;;;;;72.07;50.70;;;17.50;70.70;;;;;;4938651;28;92749;-51
2022/11/07 05:07:17;;;;;;;76.22;51.03;;;17.50;70.70;;;;;;4948118;28;89721;-51
2022/11/07 05:09:43;;;;;;;73.07;50.90;;;17.50;70.90;;;;;;4948214;28;90099;-52
2022/11/07 05:12:09;;;;;;;74.18;51.30;;;17.50;70.90;;;;;;4942756;28;90212;-52
2022/11/07 05:14:34;;;;;;;72.38;51.15;;;17.50;70.80;;;;;;4946878;28;91693;-47
2022/11/07 05:17:02;;;;;;;74.53;50.95;;;17.40;70.70;;;;;;4946054;28;89666;-49
2022/11/07 05:19:27;;;;;;;72.65;50.83;;;17.50;70.70;;;;;;4951001;28;90759;-51
2022/11/07 05:24:37;;;;;;;77.03;51.58;;;17.50;70.60;;;;;;4950078;28;90080;-50
2022/11/07 05:27:04;;;;;;;75.95;51.53;;;17.50;70.70;;;;;;4959336;28;89796;-49
2022/11/07 05:29:29;;;;;;;74.30;51.55;;;17.50;70.60;;;;;;4951587;28;94103;-51
2022/11/07 05:31:55;;;;;;;73.13;51.42;;;17.50;70.70;;;;;;4952052;28;90143;-51
2022/11/07 05:34:20;;;;;;;76.75;51.97;;;17.50;70.90;;;;;;4954090;28;91249;-52
2022/11/07 05:36:46;;;;;;;77.57;52.25;;;17.50;70.80;;;;;;4953363;28;90019;-48
2022/11/07 05:39:12;;;;;;;76.03;51.35;;;17.40;70.70;;;;;;4952540;28;91672;-51
2022/11/07 05:41:38;;;;;;;78.75;52.00;;;17.50;70.80;;;;;;4957625;28;91721;-51
2022/11/07 05:44:04;;;;;;;74.70;51.55;;;17.50;70.80;;;;;;4952716;28;89728;-48
2022/11/07 05:46:29;;;;;;;73.47;51.65;;;17.50;70.80;;;;;;4950137;28;90207;-48
2022/11/07 05:48:55;;;;;;;77.97;52.72;;;17.50;70.90;;;;;;4942697;28;90387;-51
2022/11/07 05:51:20;;;;;;;76.30;52.00;;;17.50;71.00;;;;;;4949490;28;89845;-51
2022/11/07 05:53:46;;;;;;;80.40;52.25;;;17.40;71.00;;;;;;4947530;28;90748;-50
2022/11/07 05:56:11;;;;;;;80.18;51.58;;;17.50;71.00;;;;;;4956778;28;89165;-48
2022/11/07 05:58:37;;;;;;;74.97;51.80;;;17.50;71.00;;;;;;4945372;28;89812;-50
2022/11/07 06:01:05;;;;;;;75.75;52.00;;;17.40;71.10;;;;;;4956109;28;90136;-47
2022/11/07 06:03:31;;;;;;;75.05;51.42;;;17.40;71.20;;;;;;4955879;28;91022;-48
2022/11/07 06:05:57;;;;;;;78.45;51.88;;;17.50;71.30;;;;;;4949984;28;89718;-49
2022/11/07 06:08:23;;;;;;;78.57;51.45;;;17.50;71.30;;;;;;4949063;28;90295;-49
2022/11/07 06:10:48;;;;;;;76.22;51.72;;;17.50;71.40;;;;;;4952342;28;93912;-49
2022/11/07 06:13:15;;;;;;;75.70;51.53;;;17.40;71.30;;;;;;4957427;28;90174;-49
2022/11/07 06:15:43;;;;;;;76.30;51.70;;;17.50;71.40;;;;;;4951110;28;89937;-53
2022/11/07 06:18:16;;;;;;;74.97;51.47;;;17.50;71.30;;;;;;4951408;28;90852;-51
2022/11/07 06:20:42;;;;;;;75.93;51.53;;;17.50;71.20;;;;;;4952169;28;89694;-49
2022/11/07 06:23:07;;;;;;;77.30;51.67;;;17.50;71.20;;;;;;4956911;28;90605;-46
2022/11/07 06:25:34;;;;;;;75.40;51.47;;;17.50;71.30;;;;;;4954235;28;90756;-51
2022/11/07 06:28:02;;;;;;;72.90;51.33;;;17.50;71.50;;;;;;4957357;28;91068;-48
2022/11/07 06:30:29;;;;;;;77.55;51.63;;;17.50;71.30;;;;;;4950262;28;91242;-50
2022/11/07 06:32:54;;;;;;;73.13;51.40;;;17.50;71.50;;;;;;4962271;28;90030;-50
2022/11/07 06:35:21;;;;;;;72.95;51.03;;;17.50;71.60;;;;;;4956779;28;90131;-47
2022/11/07 06:37:46;;;;;;;76.80;51.50;;;17.40;71.50;;;;;;4952208;28;93452;-49
2022/11/07 06:40:12;;;;;;;78.38;52.22;;;17.40;71.80;;;;;;4941813;28;89772;-48
2022/11/07 06:42:38;;;;;;;78.10;52.35;;;17.30;72.00;;;;;;4951687;28;91073;-49
2022/11/07 06:45:04;;;;;;;80.80;52.90;;;17.30;72.30;;;;;;4946670;28;91440;-51
2022/11/07 06:47:30;;;;;;;74.50;52.22;;;17.30;72.50;;;;;;4954317;28;93359;-48
2022/11/07 06:49:55;;;;;;;78.10;52.53;;;17.30;72.60;;;;;;4948596;28;90509;-54
2022/11/07 06:52:21;;;;;;;78.43;52.47;;;17.30;72.60;;;;;;4950447;28;91515;-50
2022/11/07 06:54:47;;;;;;;81.07;52.78;;;17.30;72.60;;;;;;4938882;28;90490;-52
2022/11/07 06:57:12;;;;;;;82.38;53.45;;;17.30;72.70;;;;;;4945745;28;91353;-51
2022/11/07 06:59:38;;;;;;;87.85;53.97;;;17.30;72.70;;;;;;4946436;28;90231;-51
2022/11/07 07:02:03;;;;;;;82.32;52.63;;;17.30;72.90;;;;;;4957261;28;90565;-48
2022/11/07 07:04:29;;;;;;;84.38;53.67;;;17.30;73.10;;;;;;4949687;28;89870;-48
2022/11/07 07:06:55;;;;;;;87.30;53.45;;;17.20;73.10;;;;;;4945697;28;89873;-49
2022/11/07 07:09:20;;;;;;;83.57;53.38;;;17.20;73.10;;;;;;4950482;28;89870;-52
2022/11/07 07:11:47;;;;;;;82.55;53.55;;;17.20;73.10;;;;;;4953798;28;90070;-49
2022/11/07 07:14:13;;;;;;;88.68;53.85;;;17.20;73.10;;;;;;4945532;28;89623;-48
2022/11/07 07:16:38;;;;;;;81.70;52.63;;;17.20;73.10;;;;;;4949970;28;92005;-52
2022/11/07 07:19:04;;;;;;;82.43;52.83;;;17.20;73.30;;;;;;4949552;28;90961;-47
2022/11/07 07:21:30;;;;;;;85.65;52.83;;;17.20;73.50;;;;;;4951519;28;93494;-51
2022/11/07 07:23:56;;;;;;;80.55;53.22;;;17.20;73.40;;;;;;4952566;28;89624;-48
2022/11/07 07:26:21;;;;;;;82.13;52.58;;;17.20;73.80;;;;;;4952252;28;90244;-52
2022/11/07 07:28:50;;;;;;;84.93;52.42;;;17.30;74.10;;;;;;4956784;28;90606;-48
2022/11/07 07:31:16;;;;;;;82.60;53.00;;;17.20;74.50;;;;;;4956438;28;90018;-50
2022/11/07 07:33:42;;;;;;;84.65;53.53;;;17.30;74.70;;;;;;4946226;28;89140;-50
2022/11/07 07:36:09;;;;;;;81.30;53.05;;;17.20;74.60;;;;;;4963605;28;90334;-48
2022/11/07 07:38:35;;;;;;;79.32;53.15;;;17.20;74.90;;;;;;4955382;28;90406;-50
2022/11/07 07:41:01;;;;;;;78.32;53.20;;;17.20;74.40;;;;;;4948396;28;91050;-51
2022/11/07 07:43:27;;;;;;;78.03;52.55;;;17.20;74.60;;;;;;4954024;28;90110;-51
2022/11/07 07:46:00;;;;;;;80.53;52.83;;;17.20;74.30;;;;;;4945464;28;90485;-49
2022/11/07 07:48:26;;;;;;;77.78;52.05;;;17.30;74.30;;;;;;4950102;28;90621;-50
2022/11/07 07:50:52;;;;;;;80.03;52.53;;;17.30;74.90;;;;;;4947315;28;89784;-48
2022/11/07 07:53:18;;;;;;;75.68;52.50;;;17.30;74.20;;;;;;4952501;28;89859;-50
2022/11/07 07:55:44;;;;;;;79.55;52.20;;;17.20;74.20;;;;;;4949340;28;95199;-50
2022/11/07 07:58:11;;;;;;;79.10;52.70;;;17.20;74.10;;;;;;4947223;28;90691;-50
2022/11/07 08:00:37;;;;;;;78.57;52.92;;;17.30;74.10;;;;;;4938595;28;90897;-54
2022/11/07 08:03:10;;;;;;;76.28;52.50;;;17.30;74.20;;;;;;4932751;28;93498;-48
2022/11/07 08:05:37;;;;;;;83.25;52.95;;;17.40;74.20;;;;;;4929907;28;90973;-54
2022/11/07 08:08:04;;;;;;;78.55;52.45;;;17.40;74.50;;;;;;4942404;28;90844;-49
2022/11/07 08:10:30;;;;;;;81.63;52.70;;;17.50;74.70;;;;;;4942556;28;92124;-53
2022/11/07 08:12:56;;;;;;;79.68;52.58;;;17.50;75.70;;;;;;4948641;28;89543;-52
2022/11/07 08:15:22;;;;;;;79.50;52.05;;;17.50;75.20;;;;;;4945982;28;89833;-50
2022/11/07 08:17:48;;;;;;;76.25;52.05;;;17.50;75.60;;;;;;4942678;28;91852;-49
2022/11/07 08:20:15;;;;;;;79.30;53.10;;;17.50;75.90;;;;;;4946202;28;89985;-51
2022/11/07 08:22:41;;;;;;;77.68;52.13;;;17.50;76.30;;;;;;4943958;28;91394;-47
2022/11/07 08:25:09;;;;;;;80.28;52.35;;;17.50;76.30;;;;;;4935087;28;91127;-50
2022/11/07 08:27:35;;;;;;;82.80;52.83;;;17.50;75.90;;;;;;4947953;28;90073;-49
2022/11/07 08:30:02;;;;;;;78.18;53.22;;;17.50;75.70;;;;;;4935757;28;93269;-49
2022/11/07 08:32:29;;;;;;;81.32;53.03;;;17.60;74.90;;;;;;4954273;28;89967;-46
2022/11/07 08:34:55;;;;;;;80.18;52.63;;;17.50;74.40;;;;;;4952305;28;90418;-47
2022/11/07 08:37:21;;;;;;;80.90;52.78;;;17.50;74.40;;;;;;4947671;28;91697;-50
2022/11/07 08:39:47;;;;;;;77.43;52.65;;;17.50;74.30;;;;;;4942006;28;89800;-50
2022/11/07 08:42:12;;;;;;;81.85;52.67;;;17.50;74.20;;;;;;4946134;28;91134;-47
2022/11/07 08:44:38;;;;;;;77.88;52.50;;;17.50;74.00;;;;;;4944379;28;90250;-50
2022/11/07 08:47:05;;;;;;;79.10;52.80;;;17.50;73.80;;;;;;4948321;28;89926;-48
2022/11/07 08:49:30;;;;;;;77.82;52.53;;;17.50;73.70;;;;;;4941079;28;91419;-49
2022/11/07 08:51:56;;;;;;;81.07;52.80;;;17.50;73.60;;;;;;4945655;28;89725;-47
2022/11/07 08:54:24;;;;;;;78.90;52.33;;;17.50;73.40;;;;;;4945584;28;92753;-50
2022/11/07 08:56:50;;;;;;;83.97;52.78;;;17.50;73.30;;;;;;4941377;28;91297;-48
2022/11/07 08:59:16;;;;;;;78.57;52.35;;;17.50;73.20;;;;;;4946989;28;90594;-49
2022/11/07 09:01:42;;;;;;;77.57;52.15;;;17.50;73.00;;;;;;4950132;28;90436;-48
2022/11/07 09:04:08;;;;;;;83.15;52.45;;;17.50;72.80;;;;;;4946855;28;89947;-49
2022/11/07 09:06:33;;;;;;;80.25;52.45;;;17.60;72.80;;;;;;4939795;28;90879;-51
2022/11/07 09:08:59;;;;;;;80.65;52.47;;;17.50;72.40;;;;;;4936593;28;91106;-53
2022/11/07 09:11:25;;;;;;;81.28;52.28;;;17.30;73.10;;;;;;4944839;28;89259;-50
2022/11/07 09:13:53;;;;;;;83.32;52.20;;;17.10;73.30;;;;;;4950600;28;90748;-48
2022/11/07 09:16:19;;;;;;;80.65;51.25;;;17.00;73.80;;;;;;4950492;28;89876;-49
2022/11/07 09:18:47;;;;;;;84.68;51.80;;;16.90;74.40;;;;;;4940213;28;90964;-53
2022/11/07 09:21:13;;;;;;;81.93;52.10;;;16.90;74.90;;;;;;4945165;28;90553;-50
2022/11/07 09:23:39;;;;;;;81.30;52.38;;;16.80;75.00;;;;;;4945570;28;90981;-53
2022/11/07 09:26:05;;;;;;;79.20;51.90;;;16.90;75.10;;;;;;4944648;28;91102;-49
2022/11/07 09:28:31;;;;;;;82.03;52.03;;;16.90;75.00;;;;;;4956691;28;89765;-50
2022/11/07 09:30:58;;;;;;;81.25;52.92;;;16.90;75.10;;;;;;4933232;28;93262;-47
2022/11/07 09:33:24;;;;;;;78.95;51.80;;;17.00;74.90;;;;;;4944744;28;91130;-50
2022/11/07 09:35:50;;;;;;;77.05;51.65;;;17.00;74.90;;;;;;4940673;28;91375;-49
2022/11/07 09:38:16;;;;;;;78.57;52.20;;;17.30;74.40;;;;;;4932695;28;90253;-50
2022/11/07 09:41:09;;;;;;;78.53;51.70;;;17.50;73.90;;;;;;4942448;28;92595;-50
2022/11/07 09:44:13;;;;;;;78.00;51.65;;;17.60;73.60;;;;;;4934232;28;91265;-50
2022/11/07 09:47:04;;;;;;;75.60;53.13;;;17.70;73.50;;;;;;4945364;28;91379;-50
2022/11/07 09:49:43;;;;;;;78.57;52.92;;;17.80;73.40;;;;;;4943072;28;89932;-51
2022/11/07 09:52:42;;;;;;;78.60;52.45;;;17.80;73.00;;;;;;4943675;28;90340;-49
2022/11/07 09:55:17;;;;;;;77.43;52.40;;;17.80;72.80;;;;;;4940967;28;90481;-49
2022/11/07 09:57:44;;;;;;;83.28;52.50;;;17.80;72.60;;;;;;4940346;28;90560;-50
2022/11/07 10:00:15;;;;;;;79.13;52.40;;;17.80;72.50;;;;;;4940198;28;90714;-51
2022/11/07 10:02:46;;;;;;;;;;;17.80;72.40;;;;;;4948651;28;89273;-52
2022/11/07 10:05:35;;;;;;;79.57;52.35;;;17.80;72.30;;;;;;4950243;28;93097;-48
2022/11/07 10:08:13;;;;;;;80.63;52.08;;;17.80;72.30;;;;;;4952709;28;90063;-47
2022/11/07 10:10:49;;;;;;;79.20;52.70;;;17.80;72.20;;;;;;4945799;28;92076;-48
2022/11/07 10:13:51;;;;;;;77.18;52.92;;;17.90;72.20;;;;;;4945604;28;91233;-50
2022/11/07 10:16:46;;;;;;;78.80;52.78;;;17.90;72.10;;;;;;4946539;28;90420;-49
2022/11/07 10:19:37;;;;;;;79.00;52.70;;;17.90;72.00;;;;;;4947235;28;89957;-51
2022/11/07 10:22:35;;;;;;;78.47;52.20;;;17.90;72.00;;;;;;4950561;28;91267;-49
2022/11/07 10:25:20;;;;;;;76.50;52.13;;;17.80;71.90;;;;;;4958882;28;90136;-51
2022/11/07 10:27:57;;;;;;;78.55;51.97;;;17.90;72.00;;;;;;4952060;28;91556;-48
2022/11/07 10:30:22;;;;;;;78.72;52.78;;;17.90;71.90;;;;;;4955972;28;91912;-49
2022/11/07 10:33:26;;;;;;;78.28;52.67;;;17.90;71.90;;;;;;4949433;28;89864;-51
2022/11/07 10:35:57;;;;;;;78.22;52.47;;;17.90;72.00;;;;;;4931799;28;91575;-50
2022/11/07 10:38:28;;;;;;;76.57;52.50;;;17.90;71.90;;;;;;4948212;28;92121;-50
2022/11/07 10:40:54;;;;;;;79.23;52.57;;;17.90;71.80;;;;;;4948075;28;91879;-51
2022/11/07 10:43:42;;;;;;;77.07;53.10;;;17.90;71.80;;;;;;4944499;28;90002;-49
2022/11/07 10:46:36;;;;;;;77.75;52.60;;;17.90;71.80;;;;;;4943700;28;92990;-54
2022/11/07 10:49:16;;;;;;;80.00;53.38;;;17.90;71.80;;;;;;4950398;28;91719;-51
2022/11/07 10:51:42;;;;;;;78.85;52.08;;;17.90;71.80;;;;;;4946572;28;89724;-52
2022/11/07 10:54:24;;;;;;;79.20;52.70;;;17.90;71.80;;;;;;4947279;28;90710;-49
2022/11/07 10:57:03;;;;;;;76.03;52.40;;;17.90;71.80;;;;;;4941604;28;89802;-49
2022/11/07 10:59:31;;;;;;;80.32;52.60;;;17.90;71.80;;;;;;4947708;28;89934;-49
2022/11/07 11:01:59;;;;;;;81.07;52.60;;;17.90;71.80;;;;;;4954321;28;89871;-49
2022/11/07 11:04:31;;;;;;;77.75;52.22;;;17.90;71.70;;;;;;4950076;28;93419;-48
2022/11/07 11:06:56;;;;;;;80.47;51.72;;;17.90;71.70;;;;;;4951427;28;91946;-47
2022/11/07 11:09:26;;;;;;;76.63;52.83;;;17.90;71.70;;;;;;4948183;28;90293;-53
2022/11/07 11:11:52;;;;;;;78.10;52.28;;;17.90;71.70;;;;;;4953757;28;90107;-49
2022/11/07 11:14:19;;;;;;;78.55;52.17;;;17.90;71.70;;;;;;4946230;28;90397;-47
2022/11/07 11:16:50;;;;;;;77.78;52.08;;;17.90;71.70;;;;;;4957521;28;90539;-47
2022/11/07 11:19:23;;;;;;;77.68;52.75;;;17.90;71.70;;;;;;4953623;28;90279;-50
2022/11/07 11:21:51;;;;;;;76.38;51.78;;;17.90;71.70;;;;;;4957880;28;90717;-50
2022/11/07 11:24:38;;;;;;;78.35;52.55;;;17.90;72.40;;;;;;4955690;28;90031;-49
2022/11/07 11:27:06;;;;;;;76.30;52.35;;;17.90;71.80;;;;;;4953171;28;89922;-48
2022/11/07 11:29:39;;;;;;;77.18;52.67;;;17.90;71.70;;;;;;4947166;28;92713;-50
2022/11/07 11:32:16;;;;;;;77.68;52.10;;;17.90;71.60;;;;;;4944269;28;91449;-50
2022/11/07 11:34:50;;;;;;;76.63;52.53;;;18.00;71.60;;;;;;4940021;28;91536;-51
2022/11/07 11:37:21;;;;;;;78.15;52.20;;;18.00;71.70;;;;;;4943638;28;90058;-48
2022/11/07 11:40:01;;;;;;;78.40;51.90;;;18.00;71.60;;;;;;4952743;28;96098;-50
2022/11/07 11:42:31;;;;;;;77.20;51.88;;;18.00;71.60;;;;;;4940781;28;90485;-52
2022/11/07 11:45:02;;;;;;;77.18;51.83;;;17.90;71.60;;;;;;4940738;28;90378;-48
2022/11/07 11:47:36;;;;;;;;;;;17.90;71.60;;;;;;4944159;28;89345;-47
2022/11/07 11:50:11;;;;;;;76.65;51.90;;;18.00;71.70;;;;;;4948861;28;90785;-51
2022/11/07 11:52:37;;;;;;;77.15;51.95;;;18.00;71.70;;;;;;4953010;28;89926;-50
2022/11/07 11:55:06;;;;;;;78.18;52.15;;;18.00;72.10;;;;;;4951092;28;91239;-46
2022/11/07 11:57:53;;;;;;;76.03;51.75;;;18.00;72.30;;;;;;4942165;28;91182;-51
2022/11/07 12:00:20;;;;;;;77.13;52.35;;;18.00;72.50;;;;;;4936732;28;90779;-50
2022/11/07 12:03:12;;;;;;;77.07;52.40;;;18.00;72.60;;;;;;4946834;28;89941;-47
2022/11/07 12:06:02;;;;;;;77.20;52.15;;;18.00;72.30;;;;;;4945113;28;89841;-52
2022/11/07 12:08:55;;;;;;;74.68;51.85;;;18.00;72.20;;;;;;4947199;28;89951;-48
2022/11/07 12:11:48;;;;;;;78.07;52.03;;;18.00;72.10;;;;;;4950624;28;91292;-48
2022/11/07 12:14:19;;;;;;;79.03;52.42;;;18.00;72.00;;;;;;4955474;28;89809;-50
2022/11/07 12:16:57;;;;;;;77.05;52.15;;;18.00;71.90;;;;;;4958364;28;90025;-50
2022/11/07 12:19:30;;;;;;;75.95;52.20;;;18.00;71.90;;;;;;4956056;28;90563;-51
2022/11/07 12:22:14;;;;;;;75.22;51.78;;;18.00;71.80;;;;;;4945929;28;90861;-52
2022/11/07 12:24:46;;;;;;;76.85;51.83;;;18.00;71.80;;;;;;4947327;28;93358;-50
2022/11/07 12:27:33;;;;;;;75.03;52.17;;;18.00;71.80;;;;;;4940429;28;91377;-47
2022/11/07 12:30:21;;;;;;;76.15;51.92;;;18.00;71.70;;;;;;4944023;28;92235;-51
2022/11/07 12:33:10;;;;;;;75.40;52.00;;;18.00;71.70;;;;;;4941989;28;92845;-49
2022/11/07 12:36:01;;;;;;;76.65;52.60;;;18.00;71.80;;;;;;4942323;28;91455;-52
2022/11/07 12:38:45;;;;;;;75.73;51.83;;;18.00;71.70;;;;;;4941007;28;90069;-49
2022/11/07 12:41:37;;;;;;;77.47;52.22;;;18.00;71.70;;;;;;4938120;28;89963;-48
2022/11/07 12:44:25;;;;;;;;;;;18.00;71.70;;;;;;4939569;28;90515;-50
2022/11/07 12:47:01;;;;;;;75.90;51.35;;;18.00;71.80;;;;;;4944257;28;93979;-52
2022/11/07 12:49:33;;;;;;;75.65;52.15;;;18.00;71.70;;;;;;4947636;28;91400;-49
2022/11/07 12:52:09;;;;;;;76.85;52.03;;;18.00;71.60;;;;;;4954391;28;89607;-48
2022/11/07 12:54:46;;;;;;;75.68;51.97;;;18.00;71.70;;;;;;4945795;28;91945;-52